Nelson (NZNS)

Aerodrome — Elev 17
New Zealand
S041.17.53.999 E173.13.16.000
Loading chart...

Current Weather

NZNS 191100Z 23003KT 20KM FEW019 BKN032 10/09 Q1012 RMK AUTO VATSIM USE ONLY

Published 30 minutes ago

Airport Activity

Loading chart...
Loading chart...

Positions

CallsignRadio Name / Freq / Voice Room / TypeFrequencyVoice RoomType
NZCH-T_CTR Christchurch Control
123.700
nzch-t_ctr
123.700nzch-t_ctr
NZNS_TWR Nelson Tower
127.400
nzns_twr
127.400nzns_twr
NZNS_ATIS Nelson ATIS
129.100
nzns_atis
129.100nzns_atis
UNICOM NZZC UNICOM
122.800
unicom_nzzc
122.800unicom_nzzc

Charts